Time;durP1;ratioP1;P1;durP2;ratioP2;P2;SDS_P1;SDS_P2;PMS_P1;PMS_P2;Temp;Humidity;BMP_temperature;BMP_pressure;BME280_temperature;BME280_humidity;BME280_pressure;Samples;Min_cycle;Max_cycle;Signal;HPM_P1;HPM_P2
2022/07/31 00:00:45;;;;;;;6.05;5.45;;;;;15.30;96611.00;;;;8397319;28;20320;-66
2022/07/31 00:04:48;;;;;;;9.25;5.57;;;;;15.30;96610.00;;;;8396825;28;20305;-67
2022/07/31 00:08:52;;;;;;;7.25;5.78;;;;;15.20;96614.00;;;;8397727;28;20310;-68
2022/07/31 00:12:55;;;;;;;9.80;5.80;;;;;15.20;96614.00;;;;8397605;28;20229;-67
2022/07/31 00:17:32;;;;;;;10.27;6.55;;;;;15.30;96610.00;;;;8396871;28;20315;-67
2022/07/31 00:22:09;;;;;;;7.93;5.90;;;;;15.30;96602.00;;;;8397881;28;20306;-68
2022/07/31 00:26:14;;;;;;;7.38;6.03;;;;;15.20;96596.00;;;;8396598;28;20250;-67
2022/07/31 00:30:48;;;;;;;6.60;5.93;;;;;15.20;96605.00;;;;8396783;28;20294;-67
2022/07/31 00:35:25;;;;;;;7.78;5.70;;;;;15.30;96600.00;;;;8396298;28;20312;-67
2022/07/31 00:39:29;;;;;;;6.95;5.80;;;;;15.30;96602.00;;;;8397170;28;20703;-67
2022/07/31 00:43:34;;;;;;;6.82;5.60;;;;;15.30;96602.00;;;;8396119;28;20227;-68
2022/07/31 00:48:08;;;;;;;7.43;5.75;;;;;15.30;96610.00;;;;8395690;28;20230;-67
2022/07/31 00:52:12;;;;;;;8.30;6.28;;;;;15.30;96612.00;;;;8396011;28;20389;-67
2022/07/31 00:56:15;;;;;;;7.78;5.57;;;;;15.20;96597.00;;;;8396549;28;20228;-67
2022/07/31 01:00:20;;;;;;;14.68;6.32;;;;;15.10;96599.00;;;;8394775;28;20222;-68
2022/07/31 01:04:54;;;;;;;7.05;5.53;;;;;15.10;96605.00;;;;8396439;28;20318;-68
2022/07/31 01:08:57;;;;;;;6.10;5.28;;;;;15.00;96605.00;;;;8394918;28;20223;-68
2022/07/31 01:13:37;;;;;;;6.20;5.60;;;;;15.10;96610.00;;;;8395560;28;20301;-68
2022/07/31 01:17:46;;;;;;;9.40;6.03;;;;;15.00;96599.00;;;;8395391;28;20257;-68
2022/07/31 01:21:59;;;;;;;7.70;5.75;;;;;14.90;96608.00;;;;8395713;28;20325;-68
2022/07/31 01:26:34;;;;;;;8.57;5.93;;;;;14.90;96598.00;;;;8394675;28;20264;-68
2022/07/31 01:30:45;;;;;;;6.68;5.75;;;;;14.70;96598.00;;;;8394265;28;20696;-68
2022/07/31 01:35:15;;;;;;;7.13;5.80;;;;;14.60;96600.00;;;;8395324;28;20233;-68
2022/07/31 01:39:19;;;;;;;6.60;5.72;;;;;14.50;96607.00;;;;8394555;28;20303;-68
2022/07/31 01:43:25;;;;;;;8.68;6.53;;;;;14.50;96606.00;;;;8394654;28;20292;-70
2022/07/31 01:47:32;;;;;;;6.80;6.10;;;;;14.50;96610.00;;;;8394117;28;20309;-69
2022/07/31 01:51:37;;;;;;;7.43;6.32;;;;;14.50;96605.00;;;;8394221;28;20230;-69
2022/07/31 01:56:12;;;;;;;9.20;6.05;;;;;14.30;96607.00;;;;8391975;28;20342;-69
2022/07/31 02:00:50;;;;;;;6.95;6.13;;;;;14.20;96600.00;;;;8394423;28;20576;-69
2022/07/31 02:05:26;;;;;;;6.70;6.07;;;;;13.90;96603.00;;;;8392863;28;20233;-68
2022/07/31 02:09:31;;;;;;;11.60;6.63;;;;;13.80;96610.00;;;;8393726;28;20227;-68
2022/07/31 02:13:36;;;;;;;8.32;7.20;;;;;13.80;96613.00;;;;8393771;28;20248;-68
2022/07/31 02:17:49;;;;;;;7.82;7.03;;;;;13.80;96607.00;;;;8394079;28;20296;-68
2022/07/31 02:21:55;;;;;;;10.80;6.28;;;;;13.70;96605.00;;;;8393398;28;20293;-68
2022/07/31 02:26:31;;;;;;;10.43;6.47;;;;;13.70;96597.00;;;;8394609;28;20255;-68
2022/07/31 02:31:04;;;;;;;8.07;6.77;;;;;13.60;96598.00;;;;8393706;28;20252;-69
2022/07/31 02:35:08;;;;;;;6.70;6.00;;;;;13.50;96602.00;;;;8392990;28;20223;-68
2022/07/31 02:39:44;;;;;;;15.18;7.53;;;;;13.40;96596.00;;;;8393441;28;20238;-68
2022/07/31 02:43:47;;;;;;;7.20;6.47;;;;;13.40;96598.00;;;;8399908;28;20224;-69
2022/07/31 02:47:51;;;;;;;8.52;7.07;;;;;13.40;96592.00;;;;8400072;28;20241;-68
2022/07/31 02:52:28;;;;;;;11.63;7.13;;;;;13.30;96587.00;;;;8399305;28;20309;-68
2022/07/31 02:56:33;;;;;;;9.30;7.40;;;;;13.30;96581.00;;;;8400451;28;20304;-69
2022/07/31 03:00:37;;;;;;;8.15;7.10;;;;;13.20;96583.00;;;;8448432;22;20225;-67
2022/07/31 03:04:40;;;;;;;8.32;6.90;;;;;13.20;96569.00;;;;8418754;22;20229;-73
2022/07/31 03:08:44;;;;;;;9.70;7.40;;;;;13.20;96577.00;;;;8388417;28;20237;-70
2022/07/31 03:12:52;;;;;;;7.05;6.05;;;;;13.20;96575.00;;;;8385275;28;20596;-74
2022/07/31 03:16:57;;;;;;;14.02;7.93;;;;;13.20;96570.00;;;;8384255;28;20227;-75
2022/07/31 03:21:02;;;;;;;8.30;7.43;;;;;13.10;96567.00;;;;8395032;28;21412;-72
2022/07/31 03:25:06;;;;;;;10.50;7.85;;;;;13.10;96574.00;;;;8388877;28;20234;-70
2022/07/31 03:29:11;;;;;;;8.95;7.35;;;;;13.10;96568.00;;;;8374080;28;20230;-76
2022/07/31 03:33:34;;;;;;;12.00;7.82;;;;;13.10;96562.00;;;;8377891;28;20221;-74
2022/07/31 03:37:37;;;;;;;8.55;7.13;;;;;13.10;96566.00;;;;8382619;28;20235;-71
2022/07/31 03:41:41;;;;;;;8.35;7.28;;;;;13.10;96562.00;;;;8386070;28;20225;-72
2022/07/31 03:45:46;;;;;;;14.38;8.60;;;;;13.10;96568.00;;;;8377752;28;20233;-73
2022/07/31 03:49:50;;;;;;;10.55;7.45;;;;;13.10;96571.00;;;;8374365;28;20221;-70
2022/07/31 03:53:53;;;;;;;11.45;7.63;;;;;13.10;96571.00;;;;8380246;28;20236;-77
2022/07/31 03:57:58;;;;;;;10.25;7.68;;;;;13.10;96571.00;;;;8382604;28;20681;-75
2022/07/31 04:02:06;;;;;;;11.90;8.98;;;;;13.20;96559.00;;;;8385205;28;20223;-73
2022/07/31 04:06:12;;;;;;;10.20;7.93;;;;;13.30;96569.00;;;;8369321;28;20222;-72
2022/07/31 04:10:16;;;;;;;9.82;7.80;;;;;13.30;96583.00;;;;8365394;28;20227;-78
2022/07/31 04:14:19;;;;;;;9.73;7.25;;;;;13.40;96585.00;;;;8365202;28;20303;-74
2022/07/31 04:18:23;;;;;;;10.85;7.28;;;;;13.50;96576.00;;;;8353149;28;20657;-72
2022/07/31 04:22:27;;;;;;;9.68;7.55;;;;;13.60;96588.00;;;;8359963;28;20330;-73
2022/07/31 04:26:30;;;;;;;11.00;7.35;;;;;13.70;96581.00;;;;8359244;28;20245;-72
2022/07/31 04:30:33;;;;;;;10.35;7.63;;;;;13.90;96596.00;;;;8361573;28;20230;-73
2022/07/31 04:34:39;;;;;;;10.35;8.50;;;;;14.10;96586.00;;;;8358988;28;20232;-69
2022/07/31 04:38:42;;;;;;;8.00;7.20;;;;;14.30;96585.00;;;;8372630;28;20231;-75
2022/07/31 04:42:46;;;;;;;9.05;7.18;;;;;14.50;96589.00;;;;8366806;28;20912;-73
2022/07/31 04:46:49;;;;;;;11.43;7.95;;;;;14.70;96589.00;;;;8365639;28;20573;-69
2022/07/31 04:50:54;;;;;;;9.63;7.88;;;;;14.80;96583.00;;;;8362079;28;20602;-71
2022/07/31 04:54:57;;;;;;;11.27;8.25;;;;;14.90;96589.00;;;;8362120;28;20235;-68
2022/07/31 04:59:02;;;;;;;9.52;8.52;;;;;15.00;96587.00;;;;8365160;28;20228;-75
2022/07/31 05:03:06;;;;;;;9.70;8.02;;;;;15.10;96592.00;;;;8372693;28;20681;-72
2022/07/31 05:07:10;;;;;;;10.20;8.38;;;;;15.30;96595.00;;;;8390196;28;20249;-78
2022/07/31 05:11:23;;;;;;;10.18;7.97;;;;;15.80;96603.00;;;;8390261;28;20245;-75
2022/07/31 05:15:26;;;;;;;10.18;7.13;;;;;16.30;96611.00;;;;8387927;28;20233;-71
2022/07/31 05:19:30;;;;;;;7.65;6.47;;;;;16.90;96602.00;;;;8388319;28;20231;-71
2022/07/31 05:23:34;;;;;;;7.97;7.07;;;;;17.30;96603.00;;;;8391709;28;20243;-76
2022/07/31 05:27:37;;;;;;;8.90;6.32;;;;;17.50;96598.00;;;;8396671;28;20251;-73
2022/07/31 05:31:43;;;;;;;7.28;6.20;;;;;17.70;96609.00;;;;8401389;28;20230;-80
2022/07/31 05:36:03;;;;;;;6.97;6.05;;;;;17.80;96608.00;;;;8397948;28;20251;-69
2022/07/31 05:40:09;;;;;;;6.78;6.13;;;;;18.00;96598.00;;;;8387625;28;20327;-74
2022/07/31 05:44:12;;;;;;;7.60;6.90;;;;;18.30;96598.00;;;;8389032;28;22013;-69
2022/07/31 05:48:16;;;;;;;8.52;7.00;;;;;18.50;96598.00;;;;8394028;28;20228;-74
2022/07/31 05:52:20;;;;;;;9.70;6.57;;;;;18.60;96602.00;;;;8391630;28;20227;-74
2022/07/31 05:56:26;;;;;;;7.72;6.57;;;;;18.80;96599.00;;;;8401554;28;20306;-69
2022/07/31 06:00:29;;;;;;;8.50;6.72;;;;;18.80;96603.00;;;;8396552;28;20553;-70
2022/07/31 06:04:34;;;;;;;8.20;6.45;;;;;18.80;96611.00;;;;8388097;28;21001;-71
2022/07/31 06:08:37;;;;;;;7.35;6.55;;;;;18.80;96604.00;;;;8387642;28;20734;-71
2022/07/31 06:12:42;;;;;;;8.05;5.78;;;;;18.80;96603.00;;;;8390490;28;20240;-71
2022/07/31 06:16:48;;;;;;;8.13;6.22;;;;;18.80;96616.00;;;;8390861;28;20230;-71
2022/07/31 06:20:52;;;;;;;6.68;5.50;;;;;18.80;96617.00;;;;8387422;28;20237;-71
2022/07/31 06:24:55;;;;;;;7.05;6.35;;;;;19.10;96619.00;;;;8382915;28;20230;-70
2022/07/31 06:28:59;;;;;;;7.55;6.60;;;;;19.40;96624.00;;;;8405203;28;20257;-71
2022/07/31 06:33:03;;;;;;;7.07;6.00;;;;;19.70;96620.00;;;;8392497;28;20220;-70
2022/07/31 06:37:10;;;;;;;7.25;6.43;;;;;19.90;96625.00;;;;8390287;28;20223;-71
2022/07/31 06:41:43;;;;;;;7.25;6.53;;;;;20.20;96629.00;;;;8385596;28;20322;-74
2022/07/31 06:45:41;;;;;;;6.88;5.93;;;;;20.60;96626.00;;;;8385953;28;20307;-71
2022/07/31 06:49:55;;;;;;;8.05;5.88;;;;;20.80;96628.00;;;;8397251;28;20326;-71
2022/07/31 06:53:58;;;;;;;7.00;6.30;;;;;21.10;96625.00;;;;8403942;28;20232;-71
2022/07/31 06:58:02;;;;;;;7.05;5.22;;;;;21.50;96622.00;;;;8398735;28;20258;-72
2022/07/31 07:02:08;;;;;;;6.35;5.20;;;;;21.90;96626.00;;;;8402427;28;20257;-71
2022/07/31 07:06:11;;;;;;;5.55;5.05;;;;;22.20;96623.00;;;;8386591;28;20695;-71
2022/07/31 07:10:17;;;;;;;6.28;5.63;;;;;22.50;96622.00;;;;8398870;28;20219;-71
2022/07/31 07:14:20;;;;;;;7.22;5.80;;;;;22.80;96621.00;;;;8386541;28;20327;-72
2022/07/31 07:18:25;;;;;;;7.80;4.90;;;;;23.10;96637.00;;;;8392022;28;20244;-72
2022/07/31 07:22:29;;;;;;;6.20;5.55;;;;;23.20;96636.00;;;;8381049;28;20219;-72
2022/07/31 07:26:34;;;;;;;5.88;5.28;;;;;23.60;96638.00;;;;8387998;28;20783;-73
2022/07/31 07:30:37;;;;;;;7.60;5.57;;;;;24.40;96625.00;;;;8396092;28;20237;-76
2022/07/31 07:34:42;;;;;;;5.53;5.00;;;;;24.90;96623.00;;;;8394723;28;20228;-77
2022/07/31 07:38:45;;;;;;;5.57;5.07;;;;;25.30;96632.00;;;;8369740;28;20331;-74
2022/07/31 07:42:50;;;;;;;5.32;4.80;;;;;25.40;96634.00;;;;8395662;28;20216;-73
2022/07/31 07:46:53;;;;;;;5.80;4.78;;;;;25.80;96634.00;;;;8402464;28;20597;-72
2022/07/31 07:50:58;;;;;;;5.07;4.57;;;;;26.30;96629.00;;;;8393793;28;20231;-72
2022/07/31 07:55:02;;;;;;;4.97;4.57;;;;;27.50;96631.00;;;;8393083;28;20227;-75
2022/07/31 07:59:05;;;;;;;4.35;3.90;;;;;28.80;96625.00;;;;8394035;28;20224;-74
2022/07/31 08:03:16;;;;;;;7.00;4.10;;;;;29.50;96622.00;;;;8394491;28;20933;-73
2022/07/31 08:07:42;;;;;;;4.20;3.70;;;;;30.40;96614.00;;;;8399323;28;20231;-75
2022/07/31 08:11:45;;;;;;;3.42;3.22;;;;;31.30;96616.00;;;;8400487;28;20231;-75
2022/07/31 08:15:48;;;;;;;3.67;3.38;;;;;31.80;96611.00;;;;8393930;28;20224;-75
2022/07/31 08:19:52;;;;;;;3.33;2.95;;;;;32.20;96612.00;;;;8400951;28;20295;-74
2022/07/31 08:23:56;;;;;;;2.95;2.75;;;;;31.50;96599.00;;;;8393011;28;20582;-72
2022/07/31 08:27:59;;;;;;;3.28;2.80;;;;;31.50;96604.00;;;;8396997;28;20650;-74
2022/07/31 08:32:03;;;;;;;3.95;3.33;;;;;32.20;96608.00;;;;8406266;28;20223;-73
2022/07/31 08:36:07;;;;;;;3.42;3.20;;;;;32.80;96607.00;;;;8390521;28;20377;-77
2022/07/31 08:40:13;;;;;;;4.22;3.20;;;;;32.70;96602.00;;;;8390463;28;20236;-75
2022/07/31 08:44:16;;;;;;;5.90;3.38;;;;;32.60;96602.00;;;;8388086;28;20315;-76
2022/07/31 08:48:32;;;;;;;4.20;2.83;;;;;32.80;96609.00;;;;8392127;28;20224;-76
2022/07/31 08:52:37;;;;;;;3.25;3.00;;;;;33.30;96602.00;;;;8393326;28;20438;-71
2022/07/31 08:56:41;;;;;;;4.85;3.20;;;;;33.50;96602.00;;;;8405578;28;20215;-76
2022/07/31 09:00:45;;;;;;;5.63;2.97;;;;;33.10;96601.00;;;;8392969;28;20298;-79
2022/07/31 09:04:50;;;;;;;3.33;3.08;;;;;32.70;96600.00;;;;8388583;28;20298;-74
2022/07/31 09:08:56;;;;;;;2.80;2.60;;;;;31.90;96595.00;;;;8405533;28;20326;-74
2022/07/31 09:13:01;;;;;;;3.00;2.70;;;;;32.00;96594.00;;;;8398635;28;20589;-72
2022/07/31 09:17:08;;;;;;;3.10;2.90;;;;;32.40;96584.00;;;;8392710;28;20235;-72
2022/07/31 09:21:11;;;;;;;3.97;2.80;;;;;33.00;96577.00;;;;8397147;28;20223;-74
2022/07/31 09:25:17;;;;;;;5.53;2.92;;;;;33.50;96573.00;;;;8392242;28;20227;-73
2022/07/31 09:29:33;;;;;;;3.53;2.63;;;;;33.80;96572.00;;;;8392611;28;20591;-77
2022/07/31 09:33:38;;;;;;;3.30;2.65;;;;;34.60;96564.00;;;;8398363;28;20744;-74
2022/07/31 09:37:48;;;;;;;2.90;2.67;;;;;34.60;96560.00;;;;8393641;28;20281;-73
2022/07/31 09:41:51;;;;;;;4.78;2.67;;;;;34.30;96563.00;;;;8396222;28;20223;-73
2022/07/31 09:46:13;;;;;;;2.25;2.05;;;;;34.30;96564.00;;;;8398587;28;20242;-70
2022/07/31 09:50:23;;;;;;;3.55;2.22;;;;;34.10;96566.00;;;;8392528;28;20236;-75
2022/07/31 09:54:29;;;;;;;2.20;2.00;;;;;34.00;96562.00;;;;8403218;28;20230;-76
2022/07/31 09:58:32;;;;;;;2.70;2.40;;;;;33.90;96549.00;;;;8398075;28;20228;-70
2022/07/31 10:02:39;;;;;;;2.20;2.00;;;;;33.90;96542.00;;;;8396406;28;20773;-74
2022/07/31 10:06:43;;;;;;;2.38;2.25;;;;;34.10;96542.00;;;;8391841;28;20239;-70
2022/07/31 10:10:48;;;;;;;2.10;2.00;;;;;34.40;96557.00;;;;8403552;28;20223;-75
2022/07/31 10:14:55;;;;;;;3.58;2.10;;;;;33.30;96542.00;;;;8388027;28;20223;-76
2022/07/31 10:19:09;;;;;;;1.83;1.60;;;;;33.60;96535.00;;;;8399121;28;20231;-72
2022/07/31 10:23:16;;;;;;;1.83;1.65;;;;;33.20;96535.00;;;;8401409;28;20222;-70
2022/07/31 10:27:20;;;;;;;2.28;2.10;;;;;33.20;96538.00;;;;8395685;28;20215;-71
2022/07/31 10:31:23;;;;;;;6.25;1.80;;;;;33.00;96542.00;;;;8397353;28;20226;-75
2022/07/31 10:35:29;;;;;;;2.97;1.65;;;;;33.50;96518.00;;;;8393518;28;20231;-72
2022/07/31 10:39:42;;;;;;;2.30;1.75;;;;;33.70;96525.00;;;;8393897;28;20223;-71
2022/07/31 10:43:48;;;;;;;3.40;1.80;;;;;34.30;96527.00;;;;8396308;28;20220;-72
2022/07/31 10:47:55;;;;;;;1.75;1.60;;;;;34.40;96529.00;;;;8403852;28;20223;-70
2022/07/31 10:52:00;;;;;;;2.75;1.75;;;;;34.40;96519.00;;;;8403874;28;20233;-73
2022/07/31 10:56:09;;;;;;;1.70;1.60;;;;;34.60;96534.00;;;;8386402;28;20653;-69
2022/07/31 11:00:16;;;;;;;3.45;1.67;;;;;34.40;96526.00;;;;8395906;28;20220;-72
2022/07/31 11:04:26;;;;;;;1.58;1.50;;;;;34.60;96520.00;;;;8400437;28;20310;-72
2022/07/31 11:08:41;;;;;;;1.92;1.67;;;;;35.00;96520.00;;;;8388042;28;20232;-69
2022/07/31 11:12:44;;;;;;;1.42;1.42;;;;;35.10;96515.00;;;;8403610;28;20685;-70
2022/07/31 11:16:50;;;;;;;1.50;1.40;;;;;34.80;96510.00;;;;8402337;28;20585;-74
2022/07/31 11:20:59;;;;;;;1.60;1.50;;;;;35.20;96520.00;;;;8393448;28;20231;-72
2022/07/31 11:25:24;;;;;;;1.60;1.50;;;;;35.50;96516.00;;;;8397788;28;20622;-76
2022/07/31 11:29:30;;;;;;;1.75;1.65;;;;;35.70;96503.00;;;;8401719;28;20233;-71
2022/07/31 11:33:53;;;;;;;2.55;1.45;;;;;35.80;96509.00;;;;8402085;28;20266;-69
2022/07/31 11:37:57;;;;;;;2.33;1.40;;;;;34.60;96499.00;;;;8391141;28;20588;-71
2022/07/31 11:42:04;;;;;;;1.50;1.50;;;;;34.60;96486.00;;;;8396051;28;20697;-75
2022/07/31 11:46:10;;;;;;;2.63;1.67;;;;;35.40;96487.00;;;;8401285;28;20306;-74
2022/07/31 11:50:14;;;;;;;1.83;1.63;;;;;35.80;96480.00;;;;8401214;28;20318;-74
2022/07/31 11:54:24;;;;;;;1.70;1.55;;;;;35.70;96470.00;;;;8406864;28;20281;-74
2022/07/31 11:58:29;;;;;;;2.55;1.42;;;;;35.80;96458.00;;;;8397178;28;20228;-72
2022/07/31 12:02:33;;;;;;;1.90;1.80;;;;;36.30;96467.00;;;;8389466;28;20326;-73
2022/07/31 12:06:36;;;;;;;2.28;1.70;;;;;36.50;96464.00;;;;8403939;28;20224;-75
2022/07/31 12:10:40;;;;;;;2.88;1.70;;;;;36.40;96462.00;;;;8398819;28;20227;-69
2022/07/31 12:14:45;;;;;;;1.88;1.70;;;;;36.20;96454.00;;;;8388816;28;20640;-70
2022/07/31 12:18:51;;;;;;;2.13;1.90;;;;;35.00;96455.00;;;;8396129;28;20212;-76
2022/07/31 12:22:58;;;;;;;3.85;1.90;;;;;34.90;96437.00;;;;8392143;28;20219;-70
2022/07/31 12:27:01;;;;;;;3.80;2.00;;;;;35.00;96447.00;;;;8400747;28;20333;-73
2022/07/31 12:31:06;;;;;;;1.70;1.60;;;;;35.00;96442.00;;;;8404224;28;20257;-72
2022/07/31 12:35:10;;;;;;;1.80;1.70;;;;;34.90;96449.00;;;;8401290;28;20675;-69
2022/07/31 12:39:13;;;;;;;4.90;1.50;;;;;35.00;96446.00;;;;8400670;28;20233;-73
2022/07/31 12:43:23;;;;;;;3.40;2.15;;;;;34.90;96438.00;;;;8389309;28;20222;-71
2022/07/31 12:47:30;;;;;;;3.13;1.80;;;;;34.50;96431.00;;;;8404975;28;20664;-69
2022/07/31 12:51:33;;;;;;;1.90;1.80;;;;;34.20;96428.00;;;;8398312;28;20227;-70
2022/07/31 12:55:48;;;;;;;1.80;1.70;;;;;33.90;96430.00;;;;8396363;28;20238;-69
2022/07/31 12:59:52;;;;;;;2.45;1.95;;;;;33.70;96434.00;;;;8399958;28;20233;-72
2022/07/31 13:03:58;;;;;;;2.03;1.90;;;;;33.70;96426.00;;;;8395761;28;20253;-77
2022/07/31 13:08:06;;;;;;;2.00;1.70;;;;;34.00;96422.00;;;;8391664;28;20220;-70
2022/07/31 13:12:10;;;;;;;1.58;1.58;;;;;34.10;96405.00;;;;8405072;28;20230;-71
2022/07/31 13:16:13;;;;;;;1.65;1.65;;;;;33.60;96422.00;;;;8393682;28;20314;-69
2022/07/31 13:20:18;;;;;;;2.05;1.80;;;;;33.50;96411.00;;;;8403344;28;20219;-72
2022/07/31 13:24:22;;;;;;;2.55;1.90;;;;;33.70;96420.00;;;;8392725;28;20226;-70
2022/07/31 13:28:25;;;;;;;2.13;1.85;;;;;33.90;96422.00;;;;8398650;28;20807;-68
2022/07/31 13:32:30;;;;;;;3.10;1.95;;;;;33.50;96421.00;;;;8399250;28;20267;-72
2022/07/31 13:36:35;;;;;;;2.08;1.92;;;;;33.20;96421.00;;;;8405454;28;20848;-68
2022/07/31 13:45:02;;;;;;;2.03;1.85;;;;;33.10;96409.00;;;;8396169;28;20212;-68
2022/07/31 13:49:10;;;;;;;1.70;1.60;;;;;33.10;96414.00;;;;8390602;28;20231;-69
2022/07/31 13:53:15;;;;;;;2.85;2.00;;;;;33.10;96417.00;;;;8389894;28;20238;-69
2022/07/31 13:57:18;;;;;;;3.63;1.80;;;;;33.20;96395.00;;;;8390820;28;20219;-70
2022/07/31 14:01:22;;;;;;;3.20;1.80;;;;;33.50;96410.00;;;;8392095;28;20229;-72
2022/07/31 14:05:45;;;;;;;1.80;1.70;;;;;33.30;96404.00;;;;8388350;28;20234;-70
2022/07/31 14:09:52;;;;;;;2.80;1.80;;;;;33.10;96405.00;;;;8394217;28;20277;-71
2022/07/31 14:13:57;;;;;;;1.98;1.83;;;;;33.50;96394.00;;;;8387171;28;20226;-72
2022/07/31 14:18:00;;;;;;;1.63;1.52;;;;;34.00;96395.00;;;;8404340;28;20330;-71
2022/07/31 14:22:09;;;;;;;1.52;1.42;;;;;34.40;96399.00;;;;8395677;28;20227;-72
2022/07/31 14:26:15;;;;;;;1.45;1.40;;;;;34.20;96403.00;;;;8387207;28;20296;-70
2022/07/31 14:30:18;;;;;;;1.70;1.60;;;;;35.00;96389.00;;;;8384511;28;20700;-72
2022/07/31 14:34:22;;;;;;;2.83;1.33;;;;;36.10;96385.00;;;;8385688;28;20227;-71
2022/07/31 14:38:37;;;;;;;1.63;1.60;;;;;35.70;96391.00;;;;8395643;28;20220;-71
2022/07/31 14:42:42;;;;;;;1.55;1.45;;;;;35.00;96398.00;;;;8399397;28;20757;-72
2022/07/31 14:46:46;;;;;;;1.45;1.35;;;;;34.40;96396.00;;;;8399136;28;20230;-71
2022/07/31 14:50:49;;;;;;;3.50;1.65;;;;;34.20;96393.00;;;;8393654;28;20234;-69
2022/07/31 14:54:52;;;;;;;1.48;1.42;;;;;34.20;96390.00;;;;8380701;28;20219;-69
2022/07/31 14:58:57;;;;;;;1.40;1.30;;;;;33.80;96388.00;;;;8397822;28;20676;-70
2022/07/31 15:03:01;;;;;;;2.97;1.60;;;;;33.60;96377.00;;;;8395982;28;20224;-66
2022/07/31 15:07:04;;;;;;;2.92;1.40;;;;;33.70;96383.00;;;;8397955;28;20239;-69
2022/07/31 15:11:27;;;;;;;1.67;1.60;;;;;33.20;96389.00;;;;8397379;28;20681;-68
2022/07/31 15:15:52;;;;;;;2.30;1.45;;;;;32.80;96377.00;;;;8395270;28;20219;-67
2022/07/31 15:19:55;;;;;;;1.45;1.42;;;;;32.30;96378.00;;;;8397462;28;20226;-68
2022/07/31 15:23:58;;;;;;;3.13;1.50;;;;;32.10;96373.00;;;;8390243;28;20221;-67
2022/07/31 15:28:01;;;;;;;2.13;1.60;;;;;32.00;96374.00;;;;8398839;28;20257;-69
2022/07/31 15:32:07;;;;;;;1.52;1.52;;;;;31.80;96373.00;;;;8401747;28;21058;-66
2022/07/31 15:36:10;;;;;;;2.00;1.90;;;;;31.80;96370.00;;;;8390925;28;20580;-67
2022/07/31 15:40:17;;;;;;;3.35;1.90;;;;;31.90;96358.00;;;;8395659;28;20289;-69
2022/07/31 15:44:20;;;;;;;1.45;1.45;;;;;31.70;96358.00;;;;8405269;28;20231;-68
2022/07/31 15:48:25;;;;;;;1.77;1.63;;;;;31.50;96364.00;;;;8395984;28;20238;-67
2022/07/31 15:52:28;;;;;;;7.28;1.73;;;;;31.50;96364.00;;;;8386549;28;20223;-69
2022/07/31 15:56:32;;;;;;;1.50;1.50;;;;;31.30;96362.00;;;;8394402;28;20227;-68
2022/07/31 16:00:35;;;;;;;1.90;1.80;;;;;31.00;96355.00;;;;8398424;28;20231;-68
2022/07/31 16:04:41;;;;;;;2.22;1.60;;;;;30.70;96351.00;;;;8403112;28;20302;-68
2022/07/31 16:08:54;;;;;;;1.88;1.73;;;;;30.40;96352.00;;;;8391923;28;20232;-67
2022/07/31 16:12:58;;;;;;;3.60;1.65;;;;;30.20;96352.00;;;;8394012;28;20330;-66
2022/07/31 16:17:01;;;;;;;2.05;1.70;;;;;30.20;96357.00;;;;8386932;28;20251;-68
2022/07/31 16:21:07;;;;;;;1.77;1.67;;;;;30.10;96343.00;;;;8387547;28;20704;-67
2022/07/31 16:25:11;;;;;;;1.50;1.40;;;;;30.10;96344.00;;;;8392775;28;20987;-66
2022/07/31 16:29:15;;;;;;;3.63;1.67;;;;;30.30;96353.00;;;;8394324;28;20330;-66
2022/07/31 16:33:19;;;;;;;2.78;1.73;;;;;30.60;96349.00;;;;8392852;28;20669;-68
2022/07/31 16:37:24;;;;;;;2.40;1.70;;;;;31.00;96345.00;;;;8388630;28;20238;-66
2022/07/31 16:41:47;;;;;;;1.88;1.70;;;;;31.10;96346.00;;;;8393775;28;20765;-68
2022/07/31 16:45:57;;;;;;;2.50;1.75;;;;;30.90;96339.00;;;;8386530;28;20643;-67
2022/07/31 16:50:00;;;;;;;1.80;1.70;;;;;30.80;96343.00;;;;8399085;28;20255;-67
2022/07/31 16:54:05;;;;;;;1.70;1.60;;;;;30.70;96337.00;;;;8398049;28;20586;-66
2022/07/31 16:58:18;;;;;;;1.92;1.70;;;;;30.60;96332.00;;;;8396132;28;20228;-67
2022/07/31 17:02:27;;;;;;;2.15;1.60;;;;;30.60;96332.00;;;;8396024;28;20739;-66
2022/07/31 17:06:30;;;;;;;4.20;1.70;;;;;30.60;96341.00;;;;8393245;28;20239;-66
2022/07/31 17:10:40;;;;;;;2.75;1.65;;;;;30.70;96334.00;;;;8386134;28;20227;-66
2022/07/31 17:14:44;;;;;;;1.95;1.75;;;;;30.60;96329.00;;;;8394462;28;20250;-66
2022/07/31 17:18:48;;;;;;;2.33;1.90;;;;;30.50;96324.00;;;;8384268;28;20326;-67
2022/07/31 17:22:56;;;;;;;2.08;1.98;;;;;30.50;96330.00;;;;8390878;28;20286;-66
2022/07/31 17:27:03;;;;;;;2.72;2.10;;;;;30.50;96324.00;;;;8389490;28;20843;-67
2022/07/31 17:31:07;;;;;;;3.88;1.88;;;;;30.50;96328.00;;;;8388790;28;20589;-66
2022/07/31 17:35:11;;;;;;;3.28;1.60;;;;;30.70;96329.00;;;;8388205;28;20253;-66
2022/07/31 17:39:15;;;;;;;5.38;2.28;;;;;31.30;96332.00;;;;8390138;28;20238;-68
2022/07/31 17:43:20;;;;;;;2.50;1.98;;;;;31.90;96337.00;;;;8391965;28;20737;-66
2022/07/31 17:47:29;;;;;;;5.00;1.90;;;;;32.00;96337.00;;;;8387991;28;20230;-69
2022/07/31 17:51:33;;;;;;;1.63;1.63;;;;;31.70;96343.00;;;;8392563;28;20234;-67
2022/07/31 17:55:36;;;;;;;2.20;1.80;;;;;32.10;96347.00;;;;8391284;28;20223;-67
2022/07/31 17:59:42;;;;;;;2.28;1.75;;;;;32.00;96335.00;;;;8387842;28;20239;-66
2022/07/31 18:03:45;;;;;;;1.85;1.75;;;;;31.60;96346.00;;;;8391476;28;20620;-67
2022/07/31 18:07:49;;;;;;;1.80;1.70;;;;;30.90;96339.00;;;;8387651;28;20330;-67
2022/07/31 18:11:54;;;;;;;2.13;1.92;;;;;30.40;96339.00;;;;8385421;28;20311;-67
2022/07/31 18:16:08;;;;;;;5.82;2.00;;;;;29.90;96337.00;;;;8392178;28;20670;-68
2022/07/31 18:20:20;;;;;;;2.38;2.03;;;;;29.50;96335.00;;;;8374890;28;20637;-67
2022/07/31 18:24:24;;;;;;;1.80;1.70;;;;;29.30;96332.00;;;;8386011;28;20244;-68
2022/07/31 18:28:27;;;;;;;2.58;1.92;;;;;29.10;96337.00;;;;8394660;28;20251;-68
2022/07/31 18:32:32;;;;;;;1.95;1.85;;;;;28.80;96335.00;;;;8389702;28;20230;-68
2022/07/31 18:36:36;;;;;;;3.63;2.05;;;;;28.50;96339.00;;;;8381065;28;20254;-67
2022/07/31 18:40:39;;;;;;;2.08;1.67;;;;;28.30;96339.00;;;;8386663;28;20230;-68
2022/07/31 18:44:42;;;;;;;2.00;1.80;;;;;28.00;96334.00;;;;8380439;28;20658;-73
2022/07/31 18:48:47;;;;;;;2.10;1.90;;;;;27.70;96337.00;;;;8383001;28;20584;-73
2022/07/31 18:52:57;;;;;;;2.45;1.80;;;;;27.40;96344.00;;;;8383935;28;20807;-74
2022/07/31 18:57:02;;;;;;;3.00;2.15;;;;;27.20;96341.00;;;;8384992;28;20277;-71
2022/07/31 19:01:05;;;;;;;4.40;1.85;;;;;26.90;96341.00;;;;8379583;28;20228;-73
2022/07/31 19:05:10;;;;;;;2.40;2.00;;;;;26.50;96343.00;;;;8386962;28;20653;-73
2022/07/31 19:09:25;;;;;;;2.53;1.80;;;;;26.20;96344.00;;;;8394026;28;20239;-74
2022/07/31 19:13:30;;;;;;;3.60;2.05;;;;;26.00;96351.00;;;;8392645;28;20227;-74
2022/07/31 19:17:34;;;;;;;2.28;1.92;;;;;25.70;96346.00;;;;8370014;28;20254;-73
2022/07/31 19:21:48;;;;;;;3.88;2.15;;;;;25.60;96351.00;;;;8377037;28;20308;-73
2022/07/31 19:25:52;;;;;;;1.92;1.83;;;;;25.30;96350.00;;;;8378244;28;20229;-72
2022/07/31 19:30:08;;;;;;;2.38;2.00;;;;;25.20;96347.00;;;;8384252;28;20222;-73
2022/07/31 19:34:12;;;;;;;2.25;2.00;;;;;25.00;96348.00;;;;8390216;28;20603;-73
2022/07/31 19:38:17;;;;;;;3.42;2.13;;;;;24.90;96349.00;;;;8393253;28;20219;-72
2022/07/31 19:42:20;;;;;;;2.10;2.00;;;;;24.90;96334.00;;;;8384838;28;20230;-70
2022/07/31 19:46:23;;;;;;;3.90;2.35;;;;;24.80;96342.00;;;;8393028;28;20231;-71
2022/07/31 19:50:26;;;;;;;3.08;2.08;;;;;24.70;96345.00;;;;8407000;28;20310;-70
2022/07/31 19:54:31;;;;;;;3.20;2.10;;;;;24.60;96343.00;;;;8389692;28;20243;-71
2022/07/31 19:58:35;;;;;;;4.43;2.15;;;;;24.60;96343.00;;;;8386715;28;20224;-69
2022/07/31 20:02:40;;;;;;;3.10;2.10;;;;;24.70;96346.00;;;;8388636;28;20326;-70
2022/07/31 20:06:44;;;;;;;4.05;2.42;;;;;24.70;96343.00;;;;8401535;28;20259;-67
2022/07/31 20:10:49;;;;;;;5.05;2.63;;;;;24.70;96341.00;;;;8400755;28;20301;-68
2022/07/31 20:14:53;;;;;;;4.32;2.05;;;;;24.70;96336.00;;;;8385390;28;20280;-68
2022/07/31 20:18:56;;;;;;;2.40;2.20;;;;;24.70;96334.00;;;;8374566;28;20237;-69
2022/07/31 20:22:59;;;;;;;2.15;2.05;;;;;24.60;96340.00;;;;8405608;28;20306;-71
2022/07/31 20:27:04;;;;;;;2.92;2.15;;;;;24.50;96335.00;;;;8387849;28;20253;-68
2022/07/31 20:31:08;;;;;;;2.50;2.30;;;;;24.40;96333.00;;;;8395203;28;20568;-67
2022/07/31 20:35:24;;;;;;;3.25;1.88;;;;;24.30;96339.00;;;;8398109;28;27597;-68
2022/07/31 20:39:47;;;;;;;4.47;2.22;;;;;24.30;96331.00;;;;8397649;28;21484;-67